Time;durP1;ratioP1;P1;durP2;ratioP2;P2;SDS_P1;SDS_P2;PMS_P1;PMS_P2;Temp;Humidity;BMP_temperature;BMP_pressure;BME280_temperature;BME280_humidity;BME280_pressure;Samples;Min_cycle;Max_cycle;Signal;HPM_P1;HPM_P2
2022/02/06 00:00:34;;;;;;;35.30;25.80;;;;;;;;;;5032836;28;20094;-45
2022/02/06 00:03:00;;;;;;;35.33;24.50;;;9.20;99.90;;;;;;5036134;28;20380;-45
2022/02/06 00:05:26;;;;;;;77.88;49.42;;;9.10;99.90;;;;;;5067121;28;20039;-46
2022/02/06 00:07:52;;;;;;;24.13;17.25;;;9.10;99.90;;;;;;5034223;28;20033;-45
2022/02/06 00:10:18;;;;;;;18.20;13.45;;;9.20;99.90;;;;;;5071784;28;20030;-44
2022/02/06 00:12:44;;;;;;;17.80;12.98;;;9.20;99.90;;;;;;5069102;28;20098;-46
2022/02/06 00:15:11;;;;;;;18.70;13.10;;;;;;;;;;5070978;28;20028;-45
2022/02/06 00:17:37;;;;;;;17.92;13.68;;;;;;;;;;5070160;28;20342;-47
2022/02/06 00:20:04;;;;;;;18.80;13.35;;;;;;;;;;5068591;28;20029;-45
2022/02/06 00:27:59;;;;;;;17.73;12.27;;;;;;;;;;5013031;28;20379;-45
2022/02/06 00:30:36;;;;;;;17.45;12.88;;;;;;;;;;5012879;28;20124;-45
2022/02/06 00:33:19;;;;;;;20.08;12.18;;;;;;;;;;5012685;28;20042;-46
2022/02/06 00:43:26;;;;;;;16.63;12.45;;;;;;;;;;5013021;28;20410;-45
2022/02/06 00:45:53;;;;;;;17.48;11.77;;;;;;;;;;5012632;28;20069;-45
2022/02/06 00:48:23;;;;;;;17.98;11.80;;;;;;;;;;5012356;28;20026;-45
2022/02/06 00:50:59;;;;;;;17.45;11.90;;;;;;;;;;5013010;28;20050;-45
2022/02/06 00:53:25;;;;;;;16.13;11.88;;;;;;;;;;5011206;28;20042;-46
2022/02/06 00:55:51;;;;;;;16.65;11.25;;;;;;;;;;5012906;28;20040;-45
2022/02/06 00:58:17;;;;;;;17.70;12.40;;;;;;;;;;5012447;28;20062;-45
2022/02/06 01:00:43;;;;;;;44.42;29.20;;;;;;;;;;5009740;28;20029;-46
2022/02/06 01:03:10;;;;;;;22.27;16.05;;;;;;;;;;5012108;28;20034;-45
2022/02/06 01:05:36;;;;;;;22.08;15.60;;;;;;;;;;5061441;28;20028;-46
2022/02/06 01:08:02;;;;;;;18.00;12.50;;;;;;;;;;5072666;28;20020;-45
2022/02/06 01:10:28;;;;;;;15.85;11.38;;;;;;;;;;5073103;28;20432;-45
2022/02/06 01:13:11;;;;;;;15.63;10.82;;;;;;;;;;5036404;28;20365;-46
2022/02/06 01:15:38;;;;;;;16.45;11.85;;;;;;;;;;5069293;28;21705;-44
2022/02/06 01:18:15;;;;;;;31.42;23.45;;;;;;;;;;5044926;28;20438;-49
2022/02/06 01:20:46;;;;;;;27.65;19.88;;;;;;;;;;5046115;28;20068;-50
2022/02/06 01:23:29;;;;;;;19.80;14.95;;;;;;;;;;5070604;28;20066;-46
2022/02/06 01:26:01;;;;;;;25.50;17.77;;;;;;;;;;5073995;28;20392;-46
2022/02/06 01:28:42;;;;;;;23.42;16.67;;;;;;;;;;5065808;28;20079;-46
2022/02/06 01:33:44;;;;;;;17.10;11.13;;;8.60;99.90;;;;;;5069684;28;20079;-45
2022/02/06 01:41:19;;;;;;;15.05;11.10;;;8.30;99.90;;;;;;5072693;28;20040;-45
2022/02/06 01:43:51;;;;;;;14.70;10.55;;;8.30;99.90;;;;;;5071107;28;20043;-46
2022/02/06 02:05:54;;;;;;;13.52;9.45;;;8.00;99.90;;;;;;5012158;28;20080;-45
2022/02/06 02:14:00;;;;;;;14.80;10.32;;;7.90;99.90;;;;;;5012473;28;20472;-46
2022/02/06 02:26:47;;;;;;;14.88;9.38;;;7.10;99.90;;;;;;5005976;28;20077;-46
2022/02/06 02:48:04;;;;;;;16.83;11.65;;;5.60;99.90;;;;;;5025022;28;20040;-46
2022/02/06 02:50:33;;;;;;;19.92;12.77;;;5.40;99.90;;;;;;5027050;28;20866;-46
2022/02/06 03:00:49;;;;;;;15.48;10.20;;;5.00;99.90;;;;;;5026212;28;20108;-45
2022/02/06 03:03:19;;;;;;;15.30;9.60;;;;;;;;;;5024937;28;20128;-45
2022/02/06 03:05:49;;;;;;;14.88;10.15;;;;;;;;;;5026865;28;20117;-45
2022/02/06 03:08:15;;;;;;;15.25;10.57;;;;;;;;;;5027205;28;20034;-46
2022/02/06 03:10:42;;;;;;;17.02;10.88;;;4.70;99.90;;;;;;4994627;28;20441;-47
2022/02/06 03:13:11;;;;;;;14.73;10.32;;;;;;;;;;5027303;28;20037;-45
2022/02/06 03:15:44;;;;;;;15.43;10.18;;;;;;;;;;5029746;28;20405;-45
2022/02/06 03:18:33;;;;;;;11.30;8.05;;;;;;;;;;5041211;28;20456;-46
2022/02/06 03:21:01;;;;;;;13.10;9.00;;;4.20;99.90;;;;;;5070009;28;20111;-47
2022/02/06 03:23:28;;;;;;;12.88;8.68;;;4.20;99.90;;;;;;5070789;28;20124;-45
2022/02/06 03:25:54;;;;;;;14.02;8.27;;;;;;;;;;5071060;28;20040;-45
2022/02/06 03:28:23;;;;;;;11.57;7.93;;;;;;;;;;5068122;28;20115;-45
2022/02/06 03:30:50;;;;;;;12.63;7.72;;;3.60;99.90;;;;;;5068234;28;20029;-46
2022/02/06 03:33:16;;;;;;;13.60;7.28;;;3.70;99.90;;;;;;5070356;28;20024;-45
2022/02/06 03:35:42;;;;;;;11.43;8.00;;;;;;;;;;5069165;28;20105;-46
2022/02/06 03:38:09;;;;;;;12.68;8.25;;;;;;;;;;5070491;28;20027;-46
2022/02/06 03:40:43;;;;;;;11.13;7.50;;;;;;;;;;5072156;28;20108;-46
2022/02/06 03:43:20;;;;;;;14.02;8.95;;;;;;;;;;5070226;28;20093;-47
2022/02/06 03:45:53;;;;;;;11.77;6.93;;;;;;;;;;5069977;28;20036;-45
2022/02/06 03:48:27;;;;;;;10.07;7.43;;;;;;;;;;5071099;28;20452;-46
2022/02/06 03:50:54;;;;;;;11.27;6.40;;;;;;;;;;5021713;28;20033;-45
2022/02/06 03:53:25;;;;;;;10.60;6.90;;;;;;;;;;5067000;28;20541;-45
2022/02/06 03:55:52;;;;;;;10.32;7.13;;;;;;;;;;5068361;28;20033;-45
2022/02/06 03:58:18;;;;;;;12.23;8.60;;;;;;;;;;5065216;28;20174;-46
2022/02/06 04:00:45;;;;;;;10.65;6.93;;;;;;;;;;5066516;28;20031;-46
2022/02/06 04:03:11;;;;;;;13.73;8.05;;;;;;;;;;5017973;28;20136;-45
2022/02/06 04:05:38;;;;;;;12.32;7.63;;;;;;;;;;5073784;28;20391;-45
2022/02/06 04:08:07;;;;;;;13.93;8.30;;;3.10;99.90;;;;;;5069804;28;20064;-46
2022/02/06 04:10:42;;;;;;;15.88;8.90;;;3.00;99.90;;;;;;5017915;28;20480;-46
2022/02/06 04:13:15;;;;;;;10.55;6.55;;;2.90;99.90;;;;;;5055974;28;20166;-46
2022/02/06 04:15:42;;;;;;;13.68;7.05;;;2.80;99.90;;;;;;5072060;28;20111;-46
2022/02/06 04:18:14;;;;;;;12.60;6.53;;;2.70;99.90;;;;;;5037985;28;20249;-45
2022/02/06 04:20:41;;;;;;;11.05;6.43;;;2.60;99.90;;;;;;5066337;28;20085;-47
2022/02/06 04:23:07;;;;;;;11.93;7.10;;;2.50;99.90;;;;;;5071257;28;20048;-46
2022/02/06 04:25:33;;;;;;;9.50;5.55;;;2.50;99.90;;;;;;5044754;28;20036;-45
2022/02/06 04:27:59;;;;;;;9.98;6.25;;;2.50;99.90;;;;;;5068853;28;20029;-45
2022/02/06 04:30:25;;;;;;;8.75;5.32;;;2.50;99.90;;;;;;5052801;28;20032;-46
2022/02/06 04:32:53;;;;;;;8.13;5.72;;;2.40;99.90;;;;;;5074518;28;20078;-45
2022/02/06 04:35:20;;;;;;;9.82;5.75;;;2.60;99.90;;;;;;5068978;28;20404;-45
2022/02/06 05:22:43;;;;;;;10.27;6.25;;;2.40;99.90;;;;;;5012393;28;20489;-45
2022/02/06 05:30:16;;;;;;;7.25;5.07;;;;;;;;;;5023906;28;20308;-46
2022/02/06 05:33:00;;;;;;;9.00;5.50;;;;;;;;;;5015283;28;20038;-46
2022/02/06 05:35:27;;;;;;;7.53;4.40;;;;;;;;;;5005451;28;20040;-45
2022/02/06 05:37:53;;;;;;;11.65;5.97;;;;;;;;;;5068465;28;20055;-44
2022/02/06 05:40:19;;;;;;;11.60;7.30;;;;;;;;;;5016398;28;20044;-45
2022/02/06 05:42:45;;;;;;;13.27;6.88;;;;;;;;;;5072547;28;20040;-46
2022/02/06 05:45:12;;;;;;;12.75;7.18;;;;;;;;;;5070269;28;20142;-45
2022/02/06 05:47:38;;;;;;;8.52;4.88;;;;;;;;;;5070055;28;20100;-46
2022/02/06 05:50:05;;;;;;;7.22;4.68;;;;;;;;;;5047222;28;20037;-46
2022/02/06 05:52:32;;;;;;;6.22;4.18;;;;;;;;;;4999528;28;20044;-45
2022/02/06 05:54:58;;;;;;;6.22;3.58;;;;;;;;;;5065711;28;20020;-45
2022/02/06 05:57:24;;;;;;;5.40;3.17;;;;;;;;;;5065132;28;20064;-47
2022/02/06 05:59:50;;;;;;;7.07;5.07;;;;;;;;;;5072186;28;20403;-50
2022/02/06 06:02:17;;;;;;;9.45;5.78;;;;;;;;;;5071640;28;20040;-55
2022/02/06 06:04:43;;;;;;;10.05;5.18;;;;;;;;;;5046902;28;20056;-46
2022/02/06 06:07:09;;;;;;;16.75;8.55;;;;;;;;;;5073482;28;20032;-46
2022/02/06 06:09:36;;;;;;;17.17;10.05;;;;;;;;;;5073220;28;20082;-45
2022/02/06 06:12:02;;;;;;;21.88;13.45;;;;;;;;;;5011456;28;20033;-46
2022/02/06 06:14:29;;;;;;;16.63;10.60;;;;;;;;;;5007876;28;20045;-45
2022/02/06 06:16:59;;;;;;;11.90;7.43;;;;;;;;;;5070329;28;20051;-46
2022/02/06 06:19:25;;;;;;;16.80;11.13;;;;;;;;;;5067447;28;20028;-47
2022/02/06 06:21:57;;;;;;;17.50;13.60;;;;;;;;;;5070221;28;20513;-46
2022/02/06 06:24:24;;;;;;;13.07;10.63;;;;;;;;;;5070560;28;20016;-45
2022/02/06 06:26:51;;;;;;;12.50;8.57;;;3.50;99.90;;;;;;5023914;28;20033;-46
2022/02/06 06:29:17;;;;;;;11.90;7.40;;;;;;;;;;5067704;28;20047;-46
2022/02/06 06:31:43;;;;;;;13.63;8.60;;;4.80;99.90;;;;;;5066371;28;20102;-46
2022/02/06 06:34:09;;;;;;;13.40;8.18;;;5.80;99.90;;;;;;5047831;28;20060;-46
2022/02/06 06:36:35;;;;;;;12.05;8.02;;;;;;;;;;5068271;28;20020;-46
2022/02/06 06:39:03;;;;;;;11.73;8.50;;;;;;;;;;5065280;28;20028;-46
2022/02/06 06:41:29;;;;;;;12.07;7.30;;;;;;;;;;5068164;28;20047;-46
2022/02/06 06:43:55;;;;;;;10.57;7.65;;;;;;;;;;5072648;28;20033;-47
2022/02/06 06:46:21;;;;;;;11.13;6.80;;;9.40;99.90;;;;;;5011192;28;20405;-46
2022/02/06 06:48:48;;;;;;;12.90;8.48;;;;;;;;;;5050044;28;20025;-45
2022/02/06 06:51:14;;;;;;;11.73;8.43;;;;;;;;;;5019576;28;20536;-45
2022/02/06 06:53:43;;;;;;;13.20;9.25;;;;;;;;;;5072812;28;20036;-45
2022/02/06 06:56:15;;;;;;;11.88;9.27;;;;;;;;;;5068994;28;20052;-47
2022/02/06 06:58:48;;;;;;;;;;;;;;;;;;5068963;28;20040;-48
2022/02/06 07:04:16;;;;;;;13.43;8.35;;;;;;;;;;4967627;28;20203;-46
2022/02/06 07:06:41;;;;;;;14.50;10.02;;;15.60;88.80;;;;;;4970872;28;20490;-46
2022/02/06 07:09:07;;;;;;;17.88;13.15;;;15.30;90.80;;;;;;4971004;28;20046;-47
2022/02/06 07:11:33;;;;;;;14.20;11.57;;;15.10;89.80;;;;;;4954568;28;20108;-47
2022/02/06 07:13:58;;;;;;;12.65;9.85;;;15.70;89.50;;;;;;4936681;28;20035;-46
2022/02/06 07:16:24;;;;;;;15.30;9.50;;;16.50;87.90;;;;;;4970924;28;20114;-46
2022/02/06 07:18:50;;;;;;;25.30;17.73;;;16.70;86.20;;;;;;4966663;28;20090;-45
2022/02/06 07:21:15;;;;;;;50.08;33.45;;;14.80;86.60;;;;;;4967156;28;20491;-46
2022/02/06 07:23:41;;;;;;;14.27;11.65;;;14.70;87.60;;;;;;4953802;28;20054;-45
2022/02/06 07:26:13;;;;;;;12.45;9.70;;;15.90;85.30;;;;;;4953313;28;20126;-47
2022/02/06 07:28:47;;;;;;;13.45;10.35;;;15.40;85.70;;;;;;4921980;28;20126;-47
2022/02/06 07:31:13;;;;;;;14.43;11.02;;;14.40;86.10;;;;;;4966904;28;20368;-46
2022/02/06 07:33:38;;;;;;;13.15;9.77;;;14.40;89.80;;;;;;4932232;28;20035;-48
2022/02/06 07:36:04;;;;;;;9.10;8.18;;;14.40;87.40;;;;;;4938888;28;20547;-48
2022/02/06 07:38:30;;;;;;;11.88;9.30;;;15.00;86.40;;;;;;5035409;28;20453;-46
2022/02/06 07:40:56;;;;;;;12.88;9.73;;;16.50;85.30;;;;;;5038940;28;20412;-47
2022/02/06 07:43:22;;;;;;;12.52;9.98;;;;;;;;;;5072456;28;20510;-47
2022/02/06 07:45:48;;;;;;;18.45;12.45;;;;;;;;;;5036790;28;20058;-46
2022/02/06 07:48:15;;;;;;;11.40;9.48;;;;;;;;;;5038408;28;20036;-45
2022/02/06 07:50:41;;;;;;;10.13;8.13;;;22.40;78.10;;;;;;5072449;28;20400;-48
2022/02/06 07:53:07;;;;;;;12.02;9.07;;;21.10;73.50;;;;;;5073202;28;20107;-45
2022/02/06 07:55:33;;;;;;;12.05;10.73;;;;;;;;;;5047889;28;20092;-44
2022/02/06 07:57:59;;;;;;;12.20;9.70;;;22.50;72.20;;;;;;5054734;28;20131;-42
2022/02/06 08:00:25;;;;;;;13.38;10.32;;;;;;;;;;5038480;28;20115;-44
2022/02/06 08:02:51;;;;;;;15.93;11.30;;;23.80;70.70;;;;;;5074042;28;20036;-42
2022/02/06 08:05:18;;;;;;;13.27;9.80;;;;;;;;;;5035767;28;20082;-44
2022/02/06 08:07:47;;;;;;;12.07;10.32;;;23.30;68.90;;;;;;5054253;28;20189;-44
2022/02/06 08:10:13;;;;;;;10.70;9.68;;;23.80;69.60;;;;;;5074881;28;20040;-43
2022/02/06 08:12:50;;;;;;;12.05;9.70;;;22.80;69.00;;;;;;5070595;28;20447;-44
2022/02/06 08:15:16;;;;;;;14.25;12.45;;;23.50;68.40;;;;;;5074368;28;20033;-43
2022/02/06 08:17:42;;;;;;;10.63;8.40;;;;;;;;;;5026609;28;20037;-44
2022/02/06 08:20:13;;;;;;;9.63;8.63;;;24.60;67.90;;;;;;5010043;28;20470;-44
2022/02/06 08:22:42;;;;;;;18.70;17.42;;;24.00;67.20;;;;;;5010013;28;20455;-43
2022/02/06 08:25:10;;;;;;;8.85;7.95;;;22.80;67.00;;;;;;5031578;28;20045;-44
2022/02/06 08:27:36;;;;;;;9.93;8.45;;;22.50;68.00;;;;;;5027296;28;20034;-44
2022/02/06 08:30:03;;;;;;;9.00;8.10;;;23.90;68.00;;;;;;5027173;28;20163;-45
2022/02/06 08:32:29;;;;;;;23.52;10.77;;;;;;;;;;5029402;28;20049;-45
2022/02/06 08:34:56;;;;;;;13.05;11.38;;;23.80;67.00;;;;;;5029933;28;20032;-45
2022/02/06 08:37:22;;;;;;;11.05;8.02;;;22.60;67.80;;;;;;5028831;28;20119;-45
2022/02/06 08:39:49;;;;;;;10.77;9.68;;;23.10;68.20;;;;;;5029565;28;20544;-45
2022/02/06 08:42:15;;;;;;;17.92;16.52;;;22.10;68.10;;;;;;5004754;28;20102;-44
2022/02/06 08:44:44;;;;;;;15.45;14.02;;;21.50;68.00;;;;;;5004282;28;20041;-43
2022/02/06 08:47:12;;;;;;;14.18;12.68;;;19.90;70.50;;;;;;5028927;28;20091;-44
2022/02/06 08:49:38;;;;;;;16.45;14.80;;;20.20;70.90;;;;;;5062389;28;20481;-43
2022/02/06 08:52:06;;;;;;;17.70;14.18;;;20.00;71.80;;;;;;5070254;28;20040;-43
2022/02/06 08:54:34;;;;;;;11.70;10.27;;;18.90;73.50;;;;;;5001898;28;20041;-43
2022/02/06 08:57:02;;;;;;;14.75;9.63;;;20.50;72.40;;;;;;5051913;28;20044;-43
2022/02/06 08:59:30;;;;;;;12.77;9.73;;;21.50;70.60;;;;;;5069304;28;20384;-43
2022/02/06 09:02:01;;;;;;;10.63;9.25;;;19.40;71.30;;;;;;5070849;28;20499;-44
2022/02/06 09:04:28;;;;;;;11.02;8.80;;;20.60;71.00;;;;;;5069312;28;20086;-44
2022/02/06 09:06:58;;;;;;;9.95;9.05;;;19.10;72.30;;;;;;5067433;28;20029;-44
2022/02/06 09:09:28;;;;;;;12.00;10.38;;;18.60;72.90;;;;;;5069991;28;20072;-44
2022/02/06 09:11:54;;;;;;;10.15;8.80;;;18.80;72.60;;;;;;5036901;28;20041;-45
2022/02/06 09:14:23;;;;;;;15.20;13.88;;;19.10;73.00;;;;;;5070162;28;20661;-43
2022/02/06 09:16:50;;;;;;;11.30;10.13;;;18.90;71.20;;;;;;5070381;28;20058;-45
2022/02/06 09:19:17;;;;;;;8.85;7.95;;;18.30;73.00;;;;;;5073590;28;20052;-45
2022/02/06 09:21:43;;;;;;;11.30;10.20;;;19.60;72.40;;;;;;5071998;28;20028;-43
2022/02/06 09:24:09;;;;;;;11.57;10.30;;;17.90;72.50;;;;;;5031925;28;20051;-44
2022/02/06 09:26:37;;;;;;;8.77;7.90;;;18.10;72.30;;;;;;5051203;28;20044;-45
2022/02/06 09:29:03;;;;;;;8.88;8.02;;;18.70;72.90;;;;;;5071092;28;20016;-44
2022/02/06 09:31:30;;;;;;;10.82;9.93;;;19.00;72.60;;;;;;5070649;28;20060;-47
2022/02/06 09:36:21;;;;;;;12.23;10.82;;;19.40;70.70;;;;;;5071332;28;20025;-46
2022/02/06 09:38:47;;;;;;;37.40;30.17;;;19.70;71.30;;;;;;5070799;28;20037;-48
2022/02/06 09:41:13;;;;;;;12.77;10.65;;;20.10;70.20;;;;;;5066432;28;20396;-50
2022/02/06 09:43:40;;;;;;;14.40;13.30;;;19.20;69.60;;;;;;5035052;28;20036;-48
2022/02/06 09:46:06;;;;;;;8.38;7.68;;;19.50;68.90;;;;;;5072784;28;20070;-47
2022/02/06 09:48:33;;;;;;;8.68;7.88;;;20.60;69.40;;;;;;5069959;28;20021;-45
2022/02/06 09:51:00;;;;;;;12.20;11.40;;;20.20;68.70;;;;;;5050323;28;20495;-48
2022/02/06 09:53:29;;;;;;;12.00;11.05;;;20.40;68.20;;;;;;5070260;28;20484;-45
2022/02/06 09:56:01;;;;;;;11.00;9.90;;;20.20;66.20;;;;;;5071652;28;20024;-45
2022/02/06 10:00:54;;;;;;;17.95;15.02;;;20.10;67.60;;;;;;5032904;28;20036;-47
2022/02/06 10:03:22;;;;;;;11.13;10.07;;;19.80;67.50;;;;;;5069566;28;20033;-47
2022/02/06 10:05:49;;;;;;;10.70;9.60;;;21.60;66.00;;;;;;5040512;28;20124;-46
2022/02/06 10:08:36;;;;;;;15.23;13.85;;;;;;;;;;5070783;28;20031;-47
2022/02/06 10:11:12;;;;;;;22.80;20.80;;;22.70;76.50;;;;;;5065094;28;20089;-46
2022/02/06 10:13:39;;;;;;;18.25;16.75;;;21.30;66.40;;;;;;5066888;28;20066;-47
2022/02/06 10:16:10;;;;;;;25.30;23.75;;;20.30;66.90;;;;;;5003440;28;20520;-47
2022/02/06 10:18:37;;;;;;;14.68;13.57;;;20.50;65.70;;;;;;5071182;28;20025;-46
2022/02/06 10:21:05;;;;;;;10.95;9.85;;;19.50;67.60;;;;;;5067870;28;20033;-47
2022/02/06 10:26:07;;;;;;;6.53;5.63;;;19.10;68.50;;;;;;5072145;28;20124;-46
2022/02/06 10:28:44;;;;;;;6.10;5.38;;;18.40;68.90;;;;;;5058555;28;20393;-49
2022/02/06 10:31:11;;;;;;;14.25;12.88;;;17.10;69.70;;;;;;5049142;28;20033;-48
2022/02/06 10:33:45;;;;;;;14.73;13.68;;;17.90;69.70;;;;;;5040542;28;20038;-47
2022/02/06 10:36:11;;;;;;;17.23;15.93;;;18.00;69.00;;;;;;5041982;28;20045;-48
2022/02/06 10:38:37;;;;;;;16.45;15.45;;;18.80;67.70;;;;;;5048795;28;20440;-48
2022/02/06 10:41:18;;;;;;;10.48;9.50;;;19.90;67.50;;;;;;5046823;28;20037;-47
2022/02/06 10:43:54;;;;;;;12.57;11.88;;;20.80;67.60;;;;;;5042621;28;20037;-46
2022/02/06 10:46:19;;;;;;;6.93;4.75;;;19.70;66.70;;;;;;5046346;28;20120;-47
2022/02/06 10:48:48;;;;;;;14.38;12.98;;;18.80;67.70;;;;;;5038306;28;20132;-47
2022/02/06 10:51:49;;;;;;;8.25;7.25;;;19.00;67.50;;;;;;5045668;28;20388;-48
2022/02/06 10:54:25;;;;;;;7.05;3.70;;;19.00;67.80;;;;;;5048725;28;20366;-46
2022/02/06 10:57:13;;;;;;;7.43;6.35;;;17.60;68.20;;;;;;5048641;28;20029;-46
2022/02/06 10:59:53;;;;;;;11.80;10.75;;;17.50;70.40;;;;;;5059748;28;20386;-48
2022/02/06 11:02:26;;;;;;;11.52;10.63;;;17.80;69.70;;;;;;5045852;28;20057;-48
2022/02/06 11:05:02;;;;;;;11.52;10.57;;;19.10;71.00;;;;;;5054113;28;20423;-48
2022/02/06 11:07:28;;;;;;;12.07;11.13;;;19.40;71.20;;;;;;5048400;28;20131;-46
2022/02/06 11:10:08;;;;;;;16.80;15.50;;;19.80;70.10;;;;;;5049236;28;20065;-47
2022/02/06 11:12:34;;;;;;;12.68;11.68;;;18.50;69.70;;;;;;5048900;28;20033;-48
2022/02/06 11:15:03;;;;;;;12.32;11.18;;;19.10;70.30;;;;;;5048142;28;20044;-47
2022/02/06 11:17:32;;;;;;;9.50;8.70;;;20.30;69.90;;;;;;5048493;28;20121;-48
2022/02/06 11:20:06;;;;;;;7.85;7.25;;;19.80;69.30;;;;;;5072758;28;20072;-48
2022/02/06 11:22:33;;;;;;;10.13;9.18;;;19.90;68.90;;;;;;5048444;28;20045;-48
2022/02/06 11:25:04;;;;;;;7.78;7.00;;;21.00;68.10;;;;;;5046538;28;20535;-48
2022/02/06 11:27:31;;;;;;;6.43;5.85;;;19.90;69.30;;;;;;5040860;28;20535;-47
2022/02/06 11:29:57;;;;;;;12.70;11.75;;;18.80;68.60;;;;;;5037058;28;20037;-49
2022/02/06 11:32:26;;;;;;;13.88;12.88;;;;;;;;;;5048268;28;20406;-47
2022/02/06 11:34:53;;;;;;;8.05;7.40;;;18.60;68.60;;;;;;5039207;28;20048;-48
2022/02/06 11:46:04;;;;;;;9.95;8.90;;;21.80;81.50;;;;;;5031068;28;20099;-47
2022/02/06 11:48:32;;;;;;;7.18;6.47;;;20.00;68.20;;;;;;5032693;28;20041;-48
2022/02/06 11:50:58;;;;;;;8.77;7.57;;;20.10;69.20;;;;;;5034053;28;20079;-46
2022/02/06 11:53:25;;;;;;;6.55;5.53;;;20.50;67.20;;;;;;5031301;28;20425;-47
2022/02/06 11:55:52;;;;;;;7.43;6.72;;;20.60;68.10;;;;;;5030763;28;20029;-49
2022/02/06 11:58:25;;;;;;;7.32;6.63;;;20.80;68.50;;;;;;5032766;28;20680;-48
2022/02/06 12:01:06;;;;;;;6.82;6.18;;;20.60;66.50;;;;;;5032603;28;20041;-47
2022/02/06 12:03:59;;;;;;;7.05;5.95;;;21.60;66.10;;;;;;5064985;28;20049;-48
2022/02/06 12:06:37;;;;;;;9.35;8.35;;;20.60;89.10;;;;;;5062734;28;20045;-49
2022/02/06 12:09:03;;;;;;;8.73;7.93;;;21.70;68.40;;;;;;5034084;28;20409;-48
2022/02/06 12:11:30;;;;;;;6.45;5.85;;;;;;;;;;5034022;28;20091;-48
2022/02/06 12:14:22;;;;;;;7.95;4.32;;;22.10;68.30;;;;;;5032920;28;20366;-48
2022/02/06 12:20:00;;;;;;;4.38;3.60;;;20.10;65.80;;;;;;5033049;28;20042;-46
2022/02/06 12:22:26;;;;;;;4.43;3.65;;;19.70;66.30;;;;;;5025621;28;20068;-47
2022/02/06 12:24:52;;;;;;;6.35;5.28;;;18.60;66.80;;;;;;5034318;28;20087;-47
2022/02/06 12:27:22;;;;;;;6.20;5.25;;;;;;;;;;5024578;28;20050;-47
2022/02/06 12:29:50;;;;;;;10.48;6.53;;;18.70;93.50;;;;;;5029282;28;20486;-47
2022/02/06 12:32:34;;;;;;;7.32;4.82;;;19.00;93.90;;;;;;5030169;28;20033;-47
2022/02/06 12:37:46;;;;;;;3.97;2.92;;;19.30;92.60;;;;;;5033794;28;20044;-47
2022/02/06 12:40:15;;;;;;;7.03;5.70;;;19.00;91.30;;;;;;5028865;28;20598;-47
2022/02/06 12:42:44;;;;;;;7.32;6.45;;;18.90;91.90;;;;;;5033551;28;20029;-47
2022/02/06 12:45:14;;;;;;;5.05;2.80;;;19.10;91.90;;;;;;5033450;28;20397;-48
2022/02/06 12:47:42;;;;;;;4.65;3.42;;;19.00;91.90;;;;;;5029523;28;20037;-48
2022/02/06 12:50:18;;;;;;;4.60;3.75;;;19.30;92.10;;;;;;5023045;28;20092;-47
2022/02/06 12:52:44;;;;;;;5.95;4.30;;;19.80;91.50;;;;;;5025627;28;20033;-48
2022/02/06 12:55:14;;;;;;;10.65;7.32;;;19.70;92.20;;;;;;5018520;28;20032;-48
2022/02/06 12:57:51;;;;;;;3.72;2.58;;;19.40;92.40;;;;;;5028991;28;20561;-48
2022/02/06 13:00:38;;;;;;;4.43;2.53;;;19.40;92.30;;;;;;5032983;28;20087;-49
2022/02/06 13:03:27;;;;;;;5.82;4.32;;;18.90;92.30;;;;;;5034026;28;20037;-47
2022/02/06 13:05:59;;;;;;;6.32;4.60;;;19.50;92.40;;;;;;5032567;28;20079;-47
2022/02/06 13:08:26;;;;;;;5.10;3.42;;;19.80;67.90;;;;;;5032945;28;20099;-47
2022/02/06 13:11:10;;;;;;;8.05;4.20;;;20.10;67.10;;;;;;5063572;28;20048;-46
2022/02/06 13:13:46;;;;;;;16.70;8.50;;;21.10;66.80;;;;;;5033209;28;20064;-48
2022/02/06 13:38:00;;;;;;;3.63;2.25;;;22.00;71.00;;;;;;4991842;28;20022;-48
2022/02/06 13:40:31;;;;;;;3.97;2.55;;;21.30;67.80;;;;;;4993931;28;20168;-49
2022/02/06 13:43:04;;;;;;;8.40;4.75;;;21.80;67.70;;;;;;4987715;28;20065;-47
2022/02/06 13:45:34;;;;;;;7.43;3.63;;;22.30;67.10;;;;;;4862938;29;20073;-48
2022/02/06 13:48:01;;;;;;;4.63;2.13;;;22.30;66.70;;;;;;4881451;29;20464;-48
2022/02/06 13:50:28;;;;;;;6.68;2.90;;;22.40;68.00;;;;;;4899930;29;20394;-46
2022/02/06 13:53:11;;;;;;;9.38;2.92;;;22.00;66.80;;;;;;4896495;29;20040;-46
2022/02/06 13:55:48;;;;;;;5.45;3.03;;;22.10;66.70;;;;;;4895144;29;20048;-46
2022/02/06 13:58:16;;;;;;;6.22;3.55;;;21.10;67.30;;;;;;4856283;29;20038;-47
2022/02/06 14:01:05;;;;;;;34.80;11.90;;;21.10;64.50;;;;;;4834153;29;20060;-47
2022/02/06 14:03:43;;;;;;;19.55;11.10;;;21.40;64.70;;;;;;4840518;29;20053;-46
2022/02/06 14:06:10;;;;;;;8.95;3.33;;;21.60;66.60;;;;;;4858449;29;20080;-47
2022/02/06 14:08:38;;;;;;;7.75;3.75;;;21.20;65.40;;;;;;4842853;29;20064;-46
2022/02/06 14:11:16;;;;;;;8.65;3.00;;;21.20;66.80;;;;;;4852921;29;20545;-46
2022/02/06 14:13:42;;;;;;;6.43;2.92;;;21.10;66.60;;;;;;4895928;29;20053;-47
2022/02/06 14:16:12;;;;;;;4.00;2.60;;;21.20;65.40;;;;;;4920980;28;20038;-46
2022/02/06 14:18:47;;;;;;;9.50;5.22;;;20.10;66.40;;;;;;4988109;28;20053;-46
2022/02/06 14:21:13;;;;;;;8.15;4.20;;;20.60;67.70;;;;;;5009528;28;20029;-46
2022/02/06 14:23:39;;;;;;;8.88;4.25;;;20.50;67.80;;;;;;5020897;28;20053;-46
2022/02/06 14:26:13;;;;;;;7.38;4.13;;;20.90;66.50;;;;;;5013429;28;20030;-48
2022/02/06 14:28:49;;;;;;;14.70;7.10;;;21.00;65.40;;;;;;4991697;28;20044;-47
2022/02/06 14:31:22;;;;;;;5.10;2.78;;;20.60;66.50;;;;;;4997063;28;20486;-47
2022/02/06 14:33:48;;;;;;;9.60;5.05;;;20.00;73.50;;;;;;4993027;28;20109;-51
2022/02/06 14:36:17;;;;;;;19.80;8.95;;;19.40;69.80;;;;;;4993640;28;20189;-46
2022/02/06 14:38:57;;;;;;;57.17;24.50;;;19.00;80.10;;;;;;4993585;28;20034;-47
2022/02/06 14:41:35;;;;;;;31.20;11.73;;;18.70;69.60;;;;;;5024119;28;20177;-51
2022/02/06 14:44:06;;;;;;;6.50;3.55;;;18.80;72.00;;;;;;4993484;28;20065;-46
2022/02/06 14:46:34;;;;;;;13.73;3.75;;;19.10;72.20;;;;;;4991574;28;20052;-52
2022/02/06 14:49:06;;;;;;;8.52;5.60;;;19.00;72.70;;;;;;4992575;28;20038;-51
2022/02/06 14:51:33;;;;;;;13.63;7.03;;;18.70;73.00;;;;;;4993790;28;20100;-50
2022/02/06 14:54:00;;;;;;;6.30;4.50;;;18.70;73.40;;;;;;4993798;28;20487;-53
2022/02/06 14:56:30;;;;;;;8.50;4.93;;;18.80;72.90;;;;;;4992523;28;20406;-50
2022/02/06 14:58:56;;;;;;;10.07;6.78;;;18.70;72.30;;;;;;4992740;28;20101;-54
2022/02/06 15:01:22;;;;;;;8.18;5.95;;;18.90;73.20;;;;;;5017928;28;20038;-52
2022/02/06 15:03:48;;;;;;;8.05;6.55;;;18.70;72.80;;;;;;4990458;28;20022;-51
2022/02/06 15:06:14;;;;;;;9.48;6.45;;;18.60;73.30;;;;;;4993835;28;20470;-52
2022/02/06 15:08:40;;;;;;;12.02;7.40;;;18.40;75.70;;;;;;4993636;28;20049;-52
2022/02/06 15:11:06;;;;;;;11.18;7.88;;;18.40;73.80;;;;;;4993618;28;20038;-51
2022/02/06 15:13:33;;;;;;;17.58;11.13;;;18.30;71.30;;;;;;4993374;28;20069;-49
2022/02/06 15:16:06;;;;;;;13.82;9.63;;;18.10;81.10;;;;;;4993845;28;20137;-51
2022/02/06 15:21:01;;;;;;;9.05;6.57;;;;;;;;;;4992126;28;20453;-50
2022/02/06 15:23:27;;;;;;;16.52;11.68;;;17.50;70.80;;;;;;4997063;28;20046;-51
2022/02/06 15:25:56;;;;;;;20.90;14.30;;;17.40;75.40;;;;;;4996925;28;20038;-45
2022/02/06 15:28:23;;;;;;;10.25;7.50;;;17.20;85.30;;;;;;5012084;28;20497;-51
2022/02/06 15:30:49;;;;;;;9.75;5.93;;;;;;;;;;5047705;28;20038;-51
2022/02/06 15:33:15;;;;;;;9.25;5.88;;;16.60;85.30;;;;;;5016575;28;20053;-53
2022/02/06 15:35:43;;;;;;;12.43;7.18;;;;;;;;;;5030292;28;20486;-50
2022/02/06 15:38:09;;;;;;;17.80;10.27;;;15.90;95.30;;;;;;5016505;28;20079;-51
2022/02/06 15:40:38;;;;;;;12.45;8.85;;;15.70;74.90;;;;;;5016688;28;20045;-49
2022/02/06 15:43:08;;;;;;;14.80;8.73;;;15.70;74.80;;;;;;5015466;28;20038;-50
2022/02/06 15:45:34;;;;;;;15.25;8.32;;;15.70;75.70;;;;;;5016690;28;20165;-51
2022/02/06 15:48:01;;;;;;;15.88;9.30;;;15.60;75.90;;;;;;5012558;28;20050;-48
2022/02/06 15:50:27;;;;;;;14.85;10.20;;;15.40;76.50;;;;;;5016388;28;20042;-48
2022/02/06 15:52:52;;;;;;;17.02;10.32;;;15.30;77.30;;;;;;5015787;28;20041;-46
2022/02/06 15:55:18;;;;;;;12.60;9.00;;;15.20;77.50;;;;;;5014611;28;20022;-42
2022/02/06 15:57:44;;;;;;;16.27;9.55;;;15.10;78.40;;;;;;5016310;28;20048;-45
2022/02/06 16:00:10;;;;;;;14.68;9.85;;;15.00;77.90;;;;;;5012629;28;20038;-44
2022/02/06 16:02:36;;;;;;;16.15;10.38;;;14.90;78.90;;;;;;5009066;28;20058;-45
2022/02/06 16:05:04;;;;;;;16.45;11.60;;;14.80;79.40;;;;;;4993662;28;20081;-50
2022/02/06 16:07:30;;;;;;;24.08;14.13;;;14.60;79.40;;;;;;5020214;28;20058;-47
2022/02/06 16:09:56;;;;;;;23.95;14.85;;;14.40;79.30;;;;;;5016045;28;20431;-42
2022/02/06 16:12:22;;;;;;;26.48;17.08;;;14.30;79.80;;;;;;5014989;28;20034;-48
2022/02/06 16:14:48;;;;;;;27.63;16.67;;;14.10;80.30;;;;;;5015424;28;20124;-46
2022/02/06 16:17:14;;;;;;;35.25;20.73;;;14.00;80.70;;;;;;5013524;28;20085;-47
2022/02/06 16:19:40;;;;;;;35.17;21.08;;;13.70;81.00;;;;;;4997671;28;20068;-47